createdAt,value
2019-02-16T00:01:04.395Z,6.80
2019-02-16T00:03:33.965Z,5.20
2019-02-16T00:06:03.660Z,4.53
2019-02-16T00:08:33.192Z,6.60
2019-02-16T00:11:03.297Z,6.23
2019-02-16T00:13:32.888Z,6.37
2019-02-16T00:16:02.606Z,6.57
2019-02-16T00:18:32.193Z,5.23
2019-02-16T00:21:03.909Z,5.17
2019-02-16T00:23:32.956Z,7.33
2019-02-16T00:26:02.573Z,8.83
2019-02-16T00:28:32.067Z,10.43
2019-02-16T00:31:01.631Z,7.17
2019-02-16T00:33:34.179Z,8.53
2019-02-16T00:36:03.711Z,8.60
2019-02-16T00:38:33.241Z,15.43
2019-02-16T00:41:02.797Z,4.77
2019-02-16T00:43:32.373Z,15.40
2019-02-16T00:46:01.991Z,12.07
2019-02-16T00:48:31.567Z,13.23
2019-02-16T00:51:01.149Z,8.43
2019-02-16T00:53:30.710Z,6.00
2019-02-16T00:56:00.379Z,6.70
2019-02-16T00:58:29.893Z,11.10
2019-02-16T01:00:59.444Z,5.90
2019-02-16T01:03:29.089Z,7.43
2019-02-16T01:05:58.631Z,6.13
2019-02-16T01:08:28.198Z,5.97
2019-02-16T01:10:57.854Z,5.70
2019-02-16T01:13:27.417Z,5.37
2019-02-16T01:15:56.954Z,6.00
2019-02-16T01:18:27.080Z,13.63
2019-02-16T01:20:56.742Z,11.73
2019-02-16T01:23:26.251Z,6.00
2019-02-16T01:25:55.845Z,5.43
2019-02-16T01:28:25.336Z,5.13
2019-02-16T01:30:54.967Z,9.13
2019-02-16T01:33:24.600Z,6.20
2019-02-16T01:35:54.118Z,5.50
2019-02-16T01:38:23.911Z,5.63
2019-02-16T01:40:53.857Z,6.83
2019-02-16T01:43:23.734Z,9.60
2019-02-16T01:45:53.408Z,5.40
2019-02-16T01:48:22.925Z,5.40
2019-02-16T01:50:52.505Z,12.10
2019-02-16T01:53:22.046Z,5.17
2019-02-16T01:55:51.599Z,6.12
2019-02-16T01:58:21.320Z,11.80
2019-02-16T02:00:51.278Z,5.55
2019-02-16T02:03:20.898Z,6.05
2019-02-16T02:05:50.432Z,6.75
2019-02-16T02:08:20.280Z,6.90
2019-02-16T02:10:50.113Z,5.92
2019-02-16T02:13:20.142Z,5.83
2019-02-16T02:15:49.684Z,6.20
2019-02-16T02:18:19.253Z,5.70
2019-02-16T02:20:48.792Z,6.05
2019-02-16T02:23:18.338Z,5.60
2019-02-16T02:25:48.110Z,5.57
2019-02-16T02:28:17.654Z,6.23
2019-02-16T02:30:47.373Z,5.67
2019-02-16T02:33:16.942Z,5.58
2019-02-16T02:35:46.473Z,6.87
2019-02-16T02:38:16.222Z,4.70
2019-02-16T02:40:45.781Z,5.12
2019-02-16T02:43:15.386Z,4.97
2019-02-16T02:45:44.992Z,6.50
2019-02-16T02:48:14.672Z,4.90
2019-02-16T02:50:44.534Z,4.95
2019-02-16T02:53:14.099Z,5.90
2019-02-16T02:55:43.671Z,5.00
2019-02-16T02:58:13.212Z,10.35
2019-02-16T03:00:43.002Z,5.97
2019-02-16T03:03:12.810Z,4.42
2019-02-16T03:05:42.359Z,5.08
2019-02-16T03:08:11.886Z,4.55
2019-02-16T03:10:41.808Z,5.10
2019-02-16T03:13:11.344Z,5.50
2019-02-16T03:15:41.091Z,6.00
2019-02-16T03:18:10.704Z,10.08
2019-02-16T03:20:59.597Z,7.92
2019-02-16T03:23:31.514Z,4.97
2019-02-16T03:26:08.436Z,5.60
2019-02-16T03:28:57.909Z,7.47
2019-02-16T03:32:06.274Z,5.97
2019-02-16T03:35:00.977Z,10.43
2019-02-16T03:37:52.982Z,7.37
2019-02-16T03:40:22.556Z,6.30
2019-02-16T03:42:52.112Z,5.35
2019-02-16T03:45:21.720Z,5.55
2019-02-16T03:47:51.453Z,6.25
2019-02-16T03:50:20.986Z,7.45
2019-02-16T03:52:50.963Z,6.15
2019-02-16T03:55:20.528Z,7.30
2019-02-16T03:57:50.235Z,5.53
2019-02-16T04:00:19.948Z,6.07
2019-02-16T04:02:49.509Z,9.53
2019-02-16T04:05:19.586Z,5.50
2019-02-16T04:07:49.184Z,5.78
2019-02-16T04:10:19.096Z,5.75
2019-02-16T04:12:48.966Z,5.62
2019-02-16T04:15:18.543Z,4.60
2019-02-16T04:17:48.078Z,5.15
2019-02-16T04:20:17.829Z,4.45
2019-02-16T04:22:47.396Z,4.17
2019-02-16T04:25:16.987Z,4.92
2019-02-16T04:27:46.886Z,4.53
2019-02-16T04:30:16.406Z,5.10
2019-02-16T04:32:46.471Z,4.03
2019-02-16T04:35:16.068Z,9.53
2019-02-16T04:37:45.953Z,4.60
2019-02-16T04:40:15.498Z,4.40
2019-02-16T04:42:45.228Z,4.42
2019-02-16T04:45:14.740Z,5.58
2019-02-16T04:47:44.373Z,4.83
2019-02-16T04:50:14.046Z,5.08
2019-02-16T04:52:43.559Z,4.50
2019-02-16T04:55:13.377Z,11.78
2019-02-16T04:57:42.906Z,11.80
2019-02-16T05:00:12.504Z,4.70
2019-02-16T05:02:42.024Z,7.63
2019-02-16T05:05:11.622Z,5.65
2019-02-16T05:07:41.312Z,4.53
2019-02-16T05:10:11.200Z,4.37
2019-02-16T05:12:40.975Z,4.73
2019-02-16T05:15:11.321Z,7.78
2019-02-16T05:17:42.085Z,5.17
2019-02-16T05:20:11.666Z,4.90
2019-02-16T05:22:44.721Z,5.28
2019-02-16T05:25:12.547Z,5.67
2019-02-16T05:27:42.262Z,5.60
2019-02-16T05:30:11.929Z,8.60
2019-02-16T05:32:41.489Z,7.20
2019-02-16T05:35:11.071Z,5.70
2019-02-16T05:37:40.580Z,5.45
2019-02-16T05:40:11.138Z,4.45
2019-02-16T05:42:40.649Z,4.67
2019-02-16T05:45:10.802Z,4.35
2019-02-16T05:47:40.376Z,4.95
2019-02-16T05:50:09.914Z,5.40
2019-02-16T05:52:40.056Z,7.67
2019-02-16T05:55:09.742Z,4.25
2019-02-16T05:57:39.234Z,4.78
2019-02-16T06:00:11.922Z,4.62
2019-02-16T06:02:41.699Z,3.98
2019-02-16T06:05:11.340Z,4.43
2019-02-16T06:07:41.036Z,4.20
2019-02-16T06:10:10.634Z,5.08
2019-02-16T06:12:40.356Z,4.60
2019-02-16T06:15:10.857Z,4.92
2019-02-16T06:17:40.520Z,5.00
2019-02-16T06:20:10.590Z,4.57
2019-02-16T06:22:40.659Z,4.80
2019-02-16T06:25:10.760Z,5.15
2019-02-16T06:27:43.073Z,4.85
2019-02-16T06:30:12.583Z,5.12
2019-02-16T06:32:42.489Z,4.58
2019-02-16T06:35:13.864Z,6.87
2019-02-16T06:37:43.453Z,4.40
2019-02-16T06:40:13.172Z,3.72
2019-02-16T06:42:42.677Z,5.80
2019-02-16T06:45:12.261Z,8.80
2019-02-16T06:47:41.796Z,4.20
2019-02-16T06:50:11.434Z,3.70
2019-02-16T06:52:41.074Z,3.62
2019-02-16T06:55:10.688Z,5.62
2019-02-16T06:57:41.835Z,5.53
2019-02-16T07:00:12.791Z,6.45
2019-02-16T07:02:42.807Z,7.00
2019-02-16T07:05:12.320Z,4.95
2019-02-16T07:07:41.832Z,4.08
2019-02-16T07:10:11.509Z,5.40
2019-02-16T07:12:41.085Z,4.67
2019-02-16T07:15:10.686Z,6.10
2019-02-16T07:17:40.010Z,5.70
2019-02-16T07:20:10.014Z,7.50
2019-02-16T07:22:39.595Z,4.83
2019-02-16T07:25:09.857Z,9.73
2019-02-16T07:27:39.515Z,5.07
2019-02-16T07:30:11.958Z,6.63
2019-02-16T07:32:42.111Z,9.50
2019-02-16T07:35:11.707Z,6.90
2019-02-16T07:37:41.236Z,8.90
2019-02-16T07:40:12.708Z,5.77
2019-02-16T07:42:52.643Z,5.73
2019-02-16T07:45:28.548Z,5.47
2019-02-16T07:47:59.695Z,5.57
2019-02-16T07:50:30.894Z,5.13
2019-02-16T07:53:02.152Z,8.50
2019-02-16T07:55:33.310Z,5.93
2019-02-16T07:58:19.478Z,5.83
2019-02-16T08:01:02.241Z,11.53
2019-02-16T08:03:33.426Z,5.77
2019-02-16T08:06:04.587Z,6.20
2019-02-16T08:08:35.824Z,6.17
2019-02-16T08:11:18.875Z,6.23
2019-02-16T08:13:52.795Z,5.90
2019-02-16T08:16:24.717Z,6.87
2019-02-16T08:19:05.261Z,4.93
2019-02-16T08:21:37.801Z,5.13
2019-02-16T08:24:24.701Z,7.50
2019-02-16T08:27:12.590Z,7.83
2019-02-16T08:29:53.688Z,6.17
2019-02-16T08:32:31.450Z,5.97
2019-02-16T08:35:08.668Z,6.57
2019-02-16T08:37:39.867Z,7.63
2019-02-16T08:40:20.308Z,6.70
2019-02-16T08:42:51.468Z,6.80
2019-02-16T08:45:34.453Z,5.97
2019-02-16T08:48:08.305Z,5.73
2019-02-16T08:50:39.469Z,5.83
2019-02-16T08:53:13.310Z,5.83
2019-02-16T08:55:47.529Z,5.10
2019-02-16T08:58:19.111Z,7.20
2019-02-16T09:00:52.985Z,7.17
2019-02-16T09:03:27.283Z,10.30
2019-02-16T09:06:00.524Z,8.43
2019-02-16T09:08:35.938Z,7.10
2019-02-16T09:11:08.216Z,14.03
2019-02-16T09:13:51.361Z,7.20
2019-02-16T09:16:31.518Z,9.07
2019-02-16T09:19:05.739Z,8.50
2019-02-16T09:21:49.979Z,7.30
2019-02-16T09:24:21.140Z,6.80
2019-02-16T09:27:05.644Z,7.87
2019-02-16T09:29:45.781Z,7.30
2019-02-16T09:32:19.796Z,10.30
2019-02-16T09:34:50.936Z,8.60
2019-02-16T09:37:39.238Z,9.80
2019-02-16T09:40:10.528Z,9.17
2019-02-16T09:42:42.566Z,11.43
2019-02-16T09:45:29.787Z,9.40
2019-02-16T09:48:06.753Z,8.10
2019-02-16T09:50:52.786Z,9.23
2019-02-16T09:53:26.999Z,9.77
2019-02-16T09:55:58.632Z,12.20
2019-02-16T09:58:44.551Z,11.33
2019-02-16T10:01:15.744Z,11.97
2019-02-16T10:03:55.993Z,11.73
2019-02-16T10:06:27.239Z,14.63
2019-02-16T10:09:01.100Z,9.13
2019-02-16T10:11:32.260Z,18.37
2019-02-16T10:14:08.992Z,12.43
2019-02-16T10:16:55.940Z,17.27
2019-02-16T10:19:29.975Z,25.87
2019-02-16T10:22:01.285Z,12.43
2019-02-16T10:24:35.177Z,12.13
2019-02-16T10:27:21.038Z,20.07
2019-02-16T10:29:52.452Z,11.07
2019-02-16T10:32:24.493Z,18.27
2019-02-16T10:35:05.020Z,17.83
2019-02-16T10:37:42.044Z,14.43
2019-02-16T10:40:29.158Z,18.03
2019-02-16T10:43:01.122Z,13.63
2019-02-16T10:45:50.906Z,14.47
2019-02-16T10:48:24.691Z,18.80
2019-02-16T10:51:01.814Z,14.83
2019-02-16T10:53:38.606Z,11.80
2019-02-16T10:56:12.764Z,17.17
2019-02-16T10:58:56.882Z,21.43
2019-02-16T11:01:28.553Z,16.00
2019-02-16T11:03:59.746Z,24.33
2019-02-16T11:06:37.177Z,19.70
2019-02-16T11:09:10.059Z,19.80
2019-02-16T11:11:41.218Z,15.33
2019-02-16T11:14:30.394Z,19.33
2019-02-16T11:17:07.352Z,18.93
2019-02-16T11:19:44.193Z,17.03
2019-02-16T11:22:17.983Z,20.27
2019-02-16T11:24:49.128Z,20.00
2019-02-16T11:27:23.146Z,25.47
2019-02-16T11:29:54.353Z,19.83
2019-02-16T11:32:41.198Z,19.07
2019-02-16T11:35:12.496Z,22.07
2019-02-16T11:37:52.752Z,23.03
2019-02-16T11:40:29.636Z,23.73
2019-02-16T11:43:10.003Z,20.90
2019-02-16T11:45:47.113Z,15.23
2019-02-16T11:48:34.343Z,23.63
2019-02-16T11:51:03.614Z,23.53
2019-02-16T11:53:34.771Z,18.93
2019-02-16T11:56:10.046Z,19.30
2019-02-16T11:58:41.202Z,20.23
2019-02-16T12:01:15.080Z,17.30
2019-02-16T12:03:55.519Z,19.43
2019-02-16T12:06:29.451Z,14.20
2019-02-16T12:09:16.431Z,19.63
2019-02-16T12:11:50.549Z,14.40
2019-02-16T12:14:39.297Z,23.57
2019-02-16T12:17:13.183Z,14.67
2019-02-16T12:19:47.295Z,20.07
2019-02-16T12:22:21.180Z,15.90
2019-02-16T12:25:04.982Z,17.87
2019-02-16T12:27:44.114Z,15.37
2019-02-16T12:30:32.843Z,19.47
2019-02-16T12:33:11.334Z,17.07
2019-02-16T12:35:43.580Z,22.60
2019-02-16T12:38:31.016Z,18.40
2019-02-16T12:41:14.683Z,18.03
2019-02-16T12:43:45.818Z,17.50
2019-02-16T12:46:16.988Z,21.50
2019-02-16T12:49:06.379Z,16.10
2019-02-16T12:51:46.053Z,19.90
2019-02-16T12:54:20.237Z,19.37
2019-02-16T12:56:53.952Z,17.10
2019-02-16T12:59:43.105Z,18.67
2019-02-16T13:02:18.262Z,16.47
2019-02-16T13:04:56.842Z,20.73
2019-02-16T13:07:28.013Z,19.40
2019-02-16T13:09:59.176Z,19.03
2019-02-16T13:12:46.592Z,18.57
2019-02-16T13:15:33.901Z,15.40
2019-02-16T13:18:14.046Z,20.00
2019-02-16T13:21:00.209Z,26.17
2019-02-16T13:23:49.485Z,22.13
2019-02-16T13:26:26.935Z,17.70
2019-02-16T13:28:58.160Z,21.13
2019-02-16T13:31:30.213Z,27.63
2019-02-16T13:34:17.821Z,19.87
2019-02-16T13:36:52.493Z,20.30
2019-02-16T13:39:24.941Z,21.67
2019-02-16T13:41:58.890Z,22.00
2019-02-16T13:44:32.616Z,19.80
2019-02-16T13:47:09.499Z,22.33
2019-02-16T13:49:40.721Z,20.43
2019-02-16T13:52:14.587Z,19.77
2019-02-16T13:54:53.932Z,22.43
2019-02-16T13:57:30.672Z,21.43
2019-02-16T14:00:07.741Z,24.13
2019-02-16T14:02:41.875Z,22.40
2019-02-16T14:05:25.162Z,25.90
2019-02-16T14:08:09.437Z,20.07
2019-02-16T14:10:46.947Z,24.03
2019-02-16T14:13:21.009Z,24.97
2019-02-16T14:15:55.033Z,23.73
2019-02-16T14:18:24.573Z,21.00
2019-02-16T14:20:54.085Z,16.53
2019-02-16T14:23:23.627Z,23.80
2019-02-16T14:25:53.195Z,22.43
2019-02-16T14:28:23.308Z,28.60
2019-02-16T14:30:53.066Z,22.07
2019-02-16T14:33:22.653Z,19.37
2019-02-16T14:35:52.275Z,27.37
2019-02-16T14:38:23.455Z,25.03
2019-02-16T14:40:53.041Z,24.77
2019-02-16T14:43:22.581Z,24.13
2019-02-16T14:45:52.109Z,24.00
2019-02-16T14:48:21.642Z,19.63
2019-02-16T14:50:51.145Z,24.00
2019-02-16T14:53:21.039Z,21.07
2019-02-16T14:55:54.134Z,22.23
2019-02-16T14:58:21.788Z,23.00
2019-02-16T15:00:51.329Z,21.60
2019-02-16T15:03:20.878Z,19.97
2019-02-16T15:05:50.384Z,26.37
2019-02-16T15:08:19.935Z,24.67
2019-02-16T15:10:49.432Z,20.40
2019-02-16T15:13:18.953Z,26.20
2019-02-16T15:15:48.692Z,23.50
2019-02-16T15:18:18.219Z,23.03
2019-02-16T15:20:48.563Z,21.13
2019-02-16T15:23:18.097Z,25.80
2019-02-16T15:25:47.720Z,27.93
2019-02-16T15:28:17.246Z,25.90
2019-02-16T15:30:46.782Z,26.07
2019-02-16T15:33:16.384Z,22.70
2019-02-16T15:35:47.639Z,24.43
2019-02-16T15:38:17.780Z,28.60
2019-02-16T15:40:47.366Z,28.93
2019-02-16T15:43:16.941Z,28.70
2019-02-16T15:45:46.580Z,24.50
2019-02-16T15:48:16.160Z,29.97
2019-02-16T15:50:45.683Z,30.30
2019-02-16T15:53:15.318Z,26.63
2019-02-16T15:55:45.203Z,25.10
2019-02-16T15:58:14.729Z,25.30
2019-02-16T16:00:44.453Z,26.37
2019-02-16T16:03:14.019Z,24.40
2019-02-16T16:05:43.552Z,29.80
2019-02-16T16:08:15.160Z,25.40
2019-02-16T16:10:49.026Z,29.73
2019-02-16T16:13:20.915Z,32.90
2019-02-16T16:15:52.208Z,29.33
2019-02-16T16:18:39.742Z,43.80
2019-02-16T16:21:13.665Z,36.13
2019-02-16T16:24:01.050Z,35.77
2019-02-16T16:26:48.619Z,33.70
2019-02-16T16:29:20.041Z,28.87
2019-02-16T16:32:06.581Z,25.90
2019-02-16T16:34:42.492Z,27.20
2019-02-16T16:37:13.777Z,26.40
2019-02-16T16:39:47.384Z,27.30
2019-02-16T16:42:25.061Z,30.07
2019-02-16T16:44:59.088Z,27.47
2019-02-16T16:47:30.327Z,32.70
2019-02-16T16:50:18.987Z,37.23
2019-02-16T16:52:51.204Z,31.53
2019-02-16T16:55:22.922Z,33.13
2019-02-16T16:57:54.501Z,39.43
2019-02-16T17:00:41.702Z,33.17
2019-02-16T17:03:16.893Z,32.27
2019-02-16T17:05:48.341Z,33.77
2019-02-16T17:08:28.561Z,40.13
2019-02-16T17:11:00.078Z,35.57
2019-02-16T17:13:40.120Z,64.23
2019-02-16T17:16:14.069Z,43.63
2019-02-16T17:18:47.963Z,47.23
2019-02-16T17:21:20.396Z,39.40
2019-02-16T17:24:04.187Z,36.83
2019-02-16T17:26:38.989Z,43.37
2019-02-16T17:29:10.224Z,45.43
2019-02-16T17:31:44.388Z,50.07
2019-02-16T17:34:13.708Z,41.47
2019-02-16T17:36:44.881Z,42.23
2019-02-16T17:39:16.742Z,38.97
2019-02-16T17:41:57.101Z,39.07
2019-02-16T17:44:37.006Z,52.73
2019-02-16T17:47:14.002Z,48.63
2019-02-16T17:49:56.775Z,38.63
2019-02-16T17:52:30.781Z,36.00
2019-02-16T17:55:07.635Z,36.20
2019-02-16T17:57:41.688Z,46.63
2019-02-16T18:00:29.456Z,46.40
2019-02-16T18:02:58.808Z,42.10
2019-02-16T18:05:45.999Z,43.40
2019-02-16T18:08:23.305Z,41.10
2019-02-16T18:10:57.068Z,34.00
2019-02-16T18:13:38.641Z,41.50
2019-02-16T18:16:09.814Z,37.77
2019-02-16T18:18:40.975Z,35.60
2019-02-16T18:21:12.167Z,43.53
2019-02-16T18:23:49.266Z,43.00
2019-02-16T18:26:23.486Z,40.27
2019-02-16T18:29:02.000Z,40.13
2019-02-16T18:31:32.514Z,42.80
2019-02-16T18:34:03.713Z,35.87
2019-02-16T18:36:47.028Z,41.03
2019-02-16T18:39:20.986Z,33.80
2019-02-16T18:41:58.190Z,46.67
2019-02-16T18:44:27.492Z,46.70
2019-02-16T18:47:11.060Z,36.80
2019-02-16T18:50:00.348Z,47.80
2019-02-16T18:52:40.523Z,38.47
2019-02-16T18:55:20.980Z,48.03
2019-02-16T18:58:08.359Z,39.47
2019-02-16T19:00:45.041Z,32.73
2019-02-16T19:03:25.843Z,51.07
2019-02-16T19:05:57.103Z,40.57
2019-02-16T19:08:33.795Z,40.73
2019-02-16T19:11:14.991Z,58.17
2019-02-16T19:14:01.319Z,61.40
2019-02-16T19:16:48.700Z,72.03
2019-02-16T19:19:21.879Z,47.30
2019-02-16T19:22:09.290Z,43.77
2019-02-16T19:24:47.367Z,36.97
2019-02-16T19:27:18.544Z,37.20
2019-02-16T19:30:04.520Z,42.20
2019-02-16T19:32:42.760Z,38.20
2019-02-16T19:35:26.588Z,31.70
2019-02-16T19:37:57.901Z,33.07
2019-02-16T19:40:34.845Z,30.37
2019-02-16T19:43:09.054Z,35.03
2019-02-16T19:45:46.083Z,37.70
2019-02-16T19:48:23.006Z,35.17
2019-02-16T19:51:11.233Z,34.40
2019-02-16T19:53:42.452Z,33.97
2019-02-16T19:56:11.838Z,33.97
2019-02-16T19:58:49.761Z,34.43
2019-02-16T20:01:21.008Z,32.13
2019-02-16T20:03:58.316Z,39.23
2019-02-16T20:06:31.935Z,36.70
2019-02-16T20:09:05.876Z,37.67
2019-02-16T20:11:42.837Z,36.93
2019-02-16T20:14:23.911Z,29.40
2019-02-16T20:17:00.939Z,34.63
2019-02-16T20:19:30.266Z,32.67
2019-02-16T20:22:10.520Z,39.23
2019-02-16T20:24:46.341Z,40.33
2019-02-16T20:27:17.503Z,47.50
2019-02-16T20:30:09.694Z,39.50
2019-02-16T20:32:53.040Z,41.00
2019-02-16T20:35:36.262Z,42.10
2019-02-16T20:38:26.788Z,41.77
2019-02-16T20:41:05.632Z,45.77
2019-02-16T20:43:52.714Z,40.07
2019-02-16T20:46:26.346Z,44.77
2019-02-16T20:48:58.816Z,43.23
2019-02-16T20:51:28.259Z,43.70
2019-02-16T20:54:00.298Z,43.93
2019-02-16T20:56:31.464Z,43.90
2019-02-16T20:59:15.706Z,46.67
2019-02-16T21:01:55.726Z,39.67
2019-02-16T21:04:34.931Z,37.07
2019-02-16T21:07:08.864Z,43.27
2019-02-16T21:09:56.303Z,39.30
2019-02-16T21:12:37.203Z,38.23
2019-02-16T21:15:20.374Z,34.93
2019-02-16T21:17:51.604Z,43.23
2019-02-16T21:20:28.273Z,38.50
2019-02-16T21:23:14.335Z,39.53
2019-02-16T21:25:48.306Z,30.87
2019-02-16T21:28:24.296Z,34.83
2019-02-16T21:30:55.297Z,40.37
2019-02-16T21:33:29.130Z,54.07
2019-02-16T21:36:01.144Z,45.20
2019-02-16T21:38:34.960Z,36.93
2019-02-16T21:41:08.628Z,39.73
2019-02-16T21:43:51.460Z,31.17
2019-02-16T21:46:22.982Z,30.47
2019-02-16T21:48:57.140Z,32.50
2019-02-16T21:51:31.473Z,35.37
2019-02-16T21:54:05.425Z,29.30
2019-02-16T21:56:51.885Z,30.43
2019-02-16T21:59:21.194Z,37.27
2019-02-16T22:02:07.312Z,31.37
2019-02-16T22:04:47.506Z,37.67
2019-02-16T22:07:19.125Z,46.20
2019-02-16T22:09:53.040Z,35.80
2019-02-16T22:12:40.492Z,33.97
2019-02-16T22:15:10.736Z,34.07
2019-02-16T22:17:40.281Z,31.37
2019-02-16T22:20:10.943Z,33.50
2019-02-16T22:22:40.454Z,35.00
2019-02-16T22:25:10.325Z,32.17
2019-02-16T22:27:40.068Z,34.43
2019-02-16T22:30:11.813Z,35.90
2019-02-16T22:32:41.375Z,36.10
2019-02-16T22:35:11.366Z,37.37
2019-02-16T22:37:40.959Z,39.97
2019-02-16T22:40:10.794Z,36.10
2019-02-16T22:42:40.599Z,37.23
2019-02-16T22:45:12.566Z,37.63
2019-02-16T22:47:42.271Z,40.90
2019-02-16T22:50:12.304Z,38.27
2019-02-16T22:52:41.852Z,34.77
2019-02-16T22:55:11.439Z,38.70
2019-02-16T22:57:40.986Z,35.73
2019-02-16T23:00:16.866Z,35.90
2019-02-16T23:02:47.081Z,36.10
2019-02-16T23:05:16.746Z,35.20
2019-02-16T23:07:46.435Z,38.33
2019-02-16T23:10:16.105Z,36.63
2019-02-16T23:12:45.713Z,36.87
2019-02-16T23:15:15.905Z,44.87
2019-02-16T23:17:48.490Z,37.00
2019-02-16T23:20:18.160Z,30.60
2019-02-16T23:22:47.733Z,38.07
2019-02-16T23:25:17.332Z,36.63
2019-02-16T23:27:46.879Z,35.17
2019-02-16T23:30:16.440Z,47.73
2019-02-16T23:32:46.134Z,41.40
2019-02-16T23:35:15.738Z,37.40
2019-02-16T23:37:45.817Z,33.70
2019-02-16T23:40:15.624Z,38.73
2019-02-16T23:42:45.484Z,40.10
2019-02-16T23:45:15.138Z,42.13
2019-02-16T23:47:44.760Z,43.30
2019-02-16T23:50:14.362Z,43.10
2019-02-16T23:52:44.009Z,42.80
2019-02-16T23:55:13.907Z,37.47
2019-02-16T23:57:43.417Z,39.97
